createdAt,value
2017-12-11T00:00:33.831Z,92.00
2017-12-11T00:03:00.422Z,91.10
2017-12-11T00:05:27.642Z,91.60
2017-12-11T00:07:54.263Z,91.20
2017-12-11T00:10:22.542Z,91.10
2017-12-11T00:12:48.757Z,91.10
2017-12-11T00:15:15.404Z,91.30
2017-12-11T00:17:42.297Z,92.30
2017-12-11T00:20:08.647Z,91.60
2017-12-11T00:22:46.162Z,91.20
2017-12-11T00:25:12.755Z,91.20
2017-12-11T00:27:40.399Z,91.20
2017-12-11T00:30:07.374Z,91.20
2017-12-11T00:32:33.938Z,91.10
2017-12-11T00:35:00.532Z,91.00
2017-12-11T00:37:26.755Z,91.60
2017-12-11T00:39:54.071Z,90.60
2017-12-11T00:42:20.340Z,91.10
2017-12-11T00:44:49.745Z,90.40
2017-12-11T00:47:16.301Z,90.40
2017-12-11T00:49:43.623Z,90.80
2017-12-11T00:52:09.816Z,91.20
2017-12-11T00:54:36.046Z,91.30
2017-12-11T00:57:03.534Z,91.00
2017-12-11T00:59:29.843Z,91.70
2017-12-11T01:01:56.827Z,91.00
2017-12-11T01:04:24.190Z,91.20
2017-12-11T01:16:31.531Z,91.00
2017-12-11T01:18:58.496Z,91.20
2017-12-11T01:21:25.138Z,91.30
2017-12-11T01:23:52.191Z,91.10
2017-12-11T01:26:19.113Z,90.90
2017-12-11T01:28:45.563Z,92.10
2017-12-11T01:33:41.018Z,91.30
2017-12-11T01:36:07.622Z,91.40
2017-12-11T01:38:34.234Z,91.40
2017-12-11T01:41:00.896Z,91.50
2017-12-11T01:43:27.942Z,91.80
2017-12-11T01:45:54.547Z,91.60
2017-12-11T01:48:21.130Z,91.90
2017-12-11T01:50:48.225Z,91.70
2017-12-11T01:53:14.457Z,91.70
2017-12-11T01:55:41.417Z,91.80
2017-12-11T01:58:07.671Z,92.70
2017-12-11T02:00:34.253Z,91.90
2017-12-11T02:03:01.203Z,91.80
2017-12-11T02:05:27.433Z,92.00
2017-12-11T02:07:53.622Z,92.90
2017-12-11T02:10:19.867Z,91.50
2017-12-11T02:12:46.407Z,91.50
2017-12-11T02:15:13.874Z,91.70
2017-12-11T02:17:40.086Z,92.50
2017-12-11T02:20:07.024Z,91.90
2017-12-11T02:22:34.014Z,91.80
2017-12-11T02:25:00.243Z,92.40
2017-12-11T02:27:26.808Z,91.80
2017-12-11T02:29:53.074Z,92.50
2017-12-11T02:32:20.015Z,91.90
2017-12-11T02:34:46.225Z,91.80
2017-12-11T02:37:12.422Z,91.70
2017-12-11T02:39:39.379Z,92.00
2017-12-11T02:42:05.678Z,91.30
2017-12-11T02:44:31.904Z,91.40
2017-12-11T02:46:58.114Z,91.40
2017-12-11T02:49:24.353Z,91.40
2017-12-11T02:51:50.618Z,91.40
2017-12-11T02:54:16.853Z,91.40
2017-12-11T02:56:43.048Z,91.50
2017-12-11T02:59:09.259Z,91.50
2017-12-11T03:01:35.511Z,91.50
2017-12-11T03:04:02.540Z,91.10
2017-12-11T03:06:28.756Z,91.40
2017-12-11T03:08:54.974Z,91.40
2017-12-11T03:11:21.182Z,91.40
2017-12-11T03:13:47.402Z,91.40
2017-12-11T03:16:13.839Z,91.40
2017-12-11T03:18:40.284Z,91.50
2017-12-11T03:21:06.528Z,91.50
2017-12-11T03:23:32.731Z,91.70
2017-12-11T03:25:59.230Z,91.50
2017-12-11T03:28:25.477Z,91.70
2017-12-11T03:30:51.722Z,91.60
2017-12-11T03:33:21.581Z,91.50
2017-12-11T03:35:47.847Z,91.70
2017-12-11T03:38:14.043Z,91.70
2017-12-11T03:40:40.274Z,91.60
2017-12-11T03:43:06.550Z,91.50
2017-12-11T03:45:32.772Z,91.40
2017-12-11T03:47:59.015Z,91.20
2017-12-11T03:50:26.014Z,91.30
2017-12-11T03:52:52.230Z,91.10
2017-12-11T03:55:18.402Z,91.00
2017-12-11T03:57:44.571Z,91.20
2017-12-11T04:00:10.834Z,91.30
2017-12-11T04:12:17.043Z,91.20
2017-12-11T04:14:44.227Z,91.20
2017-12-11T04:17:10.414Z,91.40
2017-12-11T04:19:36.596Z,91.20
2017-12-11T04:22:02.774Z,91.00
2017-12-11T04:24:29.367Z,91.10
2017-12-11T04:26:55.600Z,90.80
2017-12-11T04:29:21.803Z,90.80
2017-12-11T04:31:47.993Z,90.80
2017-12-11T04:34:14.826Z,90.80
2017-12-11T04:36:41.038Z,90.80
2017-12-11T04:39:07.195Z,90.80
2017-12-11T04:41:34.304Z,90.90
2017-12-11T04:44:00.541Z,91.00
2017-12-11T04:46:26.756Z,91.10
2017-12-11T04:48:52.997Z,90.90
2017-12-11T04:51:19.191Z,91.10
2017-12-11T04:53:45.386Z,91.50
2017-12-11T04:56:11.921Z,91.60
2017-12-11T04:58:38.093Z,91.60
2017-12-11T05:01:04.303Z,91.20
2017-12-11T05:03:30.497Z,91.10
2017-12-11T05:05:57.489Z,91.20
2017-12-11T05:08:23.683Z,91.10
2017-12-11T05:10:49.970Z,91.00
2017-12-11T05:13:16.916Z,90.80
2017-12-11T05:15:43.103Z,90.80
2017-12-11T05:18:10.021Z,91.20
2017-12-11T05:20:36.281Z,91.00
2017-12-11T05:23:02.475Z,91.10
2017-12-11T05:25:29.414Z,91.10
2017-12-11T05:27:56.029Z,91.00
2017-12-11T05:30:22.259Z,90.80
2017-12-11T05:32:48.487Z,90.90
2017-12-11T05:35:14.874Z,90.80
2017-12-11T05:37:41.153Z,90.90
2017-12-11T05:40:07.707Z,91.00
2017-12-11T05:42:33.934Z,91.00
2017-12-11T05:45:00.140Z,91.10
2017-12-11T05:47:26.350Z,90.90
2017-12-11T05:49:52.519Z,91.00
2017-12-11T05:52:18.753Z,90.90
2017-12-11T05:54:44.970Z,90.90
2017-12-11T05:57:12.043Z,90.90
2017-12-11T05:59:38.779Z,90.90
2017-12-11T06:02:05.684Z,91.20
2017-12-11T06:04:32.724Z,91.10
2017-12-11T06:06:58.893Z,90.90
2017-12-11T06:09:25.093Z,91.20
2017-12-11T06:11:51.302Z,91.00
2017-12-11T06:14:17.502Z,90.90
2017-12-11T06:16:44.660Z,91.00
2017-12-11T06:19:10.840Z,90.90
2017-12-11T06:21:37.044Z,91.00
2017-12-11T06:24:03.586Z,90.90
2017-12-11T06:26:30.521Z,90.90
2017-12-11T06:28:56.674Z,90.90
2017-12-11T06:31:22.862Z,91.00
2017-12-11T06:33:49.103Z,91.00
2017-12-11T06:36:15.287Z,91.20
2017-12-11T06:38:41.427Z,91.30
2017-12-11T06:41:07.636Z,91.10
2017-12-11T06:43:33.814Z,91.00
2017-12-11T06:46:00.320Z,91.40
2017-12-11T06:48:26.650Z,91.00
2017-12-11T06:50:52.859Z,91.10
2017-12-11T06:53:19.804Z,91.40
2017-12-11T06:55:45.991Z,91.40
2017-12-11T06:58:12.233Z,91.40
2017-12-11T07:00:38.419Z,91.40
2017-12-11T07:03:05.371Z,91.70
2017-12-11T07:05:31.551Z,91.70
2017-12-11T07:07:57.724Z,92.00
2017-12-11T07:10:24.492Z,92.00
2017-12-11T07:12:50.684Z,92.20
2017-12-11T07:15:17.408Z,92.30
2017-12-11T07:17:44.448Z,92.40
2017-12-11T07:20:11.433Z,92.20
2017-12-11T07:22:37.644Z,92.60
2017-12-11T07:25:04.209Z,92.80
2017-12-11T07:27:32.173Z,92.90
2017-12-11T07:29:59.172Z,93.20
2017-12-11T07:32:25.392Z,93.30
2017-12-11T07:34:52.020Z,93.00
2017-12-11T07:37:18.253Z,93.70
2017-12-11T07:39:44.425Z,93.20
2017-12-11T07:42:11.388Z,93.20
2017-12-11T07:44:37.616Z,93.30
2017-12-11T07:47:04.602Z,93.30
2017-12-11T07:49:31.167Z,93.10
2017-12-11T07:51:57.405Z,93.20
2017-12-11T07:54:23.726Z,93.50
2017-12-11T07:56:50.416Z,93.80
2017-12-11T07:59:16.612Z,93.60
2017-12-11T08:01:42.879Z,93.70
2017-12-11T08:04:09.049Z,93.90
2017-12-11T08:06:35.363Z,94.00
2017-12-11T08:09:01.535Z,93.90
2017-12-11T08:11:28.083Z,93.60
2017-12-11T08:13:54.298Z,93.70
2017-12-11T08:16:20.887Z,93.60
2017-12-11T08:18:47.095Z,93.90
2017-12-11T08:21:13.877Z,93.80
2017-12-11T08:23:40.070Z,93.80
2017-12-11T08:26:06.435Z,93.90
2017-12-11T08:28:32.692Z,93.60
2017-12-11T08:30:59.009Z,93.90
2017-12-11T08:33:25.194Z,93.90
2017-12-11T08:35:52.166Z,94.00
2017-12-11T08:38:18.373Z,94.30
2017-12-11T08:40:44.641Z,94.50
2017-12-11T08:43:10.904Z,94.10
2017-12-11T08:45:37.144Z,94.30
2017-12-11T08:48:03.310Z,94.20
2017-12-11T08:50:29.550Z,94.10
2017-12-11T08:52:56.155Z,94.10
2017-12-11T08:55:22.352Z,93.90
2017-12-11T08:57:49.148Z,93.90
2017-12-11T09:00:15.425Z,94.00
2017-12-11T09:02:41.628Z,93.80
2017-12-11T09:05:08.710Z,94.00
2017-12-11T09:07:34.974Z,94.00
2017-12-11T09:10:02.401Z,93.90
2017-12-11T09:12:29.288Z,94.10
2017-12-11T09:14:55.526Z,94.00
2017-12-11T09:17:21.689Z,93.80
2017-12-11T09:19:47.878Z,93.80
2017-12-11T09:22:14.082Z,93.70
2017-12-11T09:24:41.051Z,93.90
2017-12-11T09:27:07.232Z,94.00
2017-12-11T09:29:34.158Z,94.00
2017-12-11T09:32:00.749Z,94.10
2017-12-11T09:34:27.702Z,94.00
2017-12-11T09:36:53.927Z,93.80
2017-12-11T09:39:20.098Z,93.80
2017-12-11T09:41:47.691Z,93.90
2017-12-11T09:44:13.873Z,94.00
2017-12-11T09:46:40.126Z,94.00
2017-12-11T09:49:06.328Z,94.30
2017-12-11T09:51:33.257Z,94.10
2017-12-11T09:53:59.505Z,93.90
2017-12-11T09:56:25.751Z,93.70
2017-12-11T09:58:52.061Z,93.80
2017-12-11T10:01:18.257Z,93.80
2017-12-11T10:03:45.239Z,94.00
2017-12-11T10:06:11.465Z,94.00
2017-12-11T10:08:37.703Z,94.20
2017-12-11T10:20:43.955Z,94.70
2017-12-11T10:23:10.192Z,94.40
2017-12-11T10:25:36.444Z,94.40
2017-12-11T10:28:02.666Z,94.40
2017-12-11T10:30:28.980Z,94.60
2017-12-11T10:32:56.142Z,94.40
2017-12-11T10:35:23.242Z,94.80
2017-12-11T10:37:49.415Z,94.80
2017-12-11T10:40:15.799Z,94.60
2017-12-11T10:42:42.025Z,94.60
2017-12-11T10:45:10.084Z,94.60
2017-12-11T10:47:36.361Z,94.80
2017-12-11T10:50:03.483Z,95.10
2017-12-11T10:52:30.464Z,95.50
2017-12-11T10:54:56.686Z,92.50
2017-12-11T10:57:23.411Z,92.00
2017-12-11T10:59:50.414Z,92.20
2017-12-11T11:02:16.593Z,92.10
2017-12-11T11:04:42.792Z,92.20
2017-12-11T11:07:09.086Z,92.70
2017-12-11T11:09:35.230Z,93.20
2017-12-11T11:12:01.436Z,93.70
2017-12-11T11:14:27.614Z,94.10
2017-12-11T11:16:53.779Z,94.10
2017-12-11T11:19:19.978Z,94.20
2017-12-11T11:21:46.410Z,94.30
2017-12-11T11:24:12.571Z,94.30
2017-12-11T11:26:38.767Z,94.60
2017-12-11T11:29:04.965Z,94.60
2017-12-11T11:31:32.043Z,94.60
2017-12-11T11:33:58.222Z,94.70
2017-12-11T11:36:25.399Z,94.90
2017-12-11T11:38:51.574Z,94.70
2017-12-11T11:41:17.812Z,94.90
2017-12-11T11:43:44.006Z,95.00
2017-12-11T11:46:10.302Z,94.70
2017-12-11T11:48:37.282Z,95.00
2017-12-11T11:51:03.445Z,95.00
2017-12-11T11:53:29.655Z,94.80
2017-12-11T11:55:55.877Z,94.90
2017-12-11T11:58:23.063Z,95.10
2017-12-11T12:00:49.309Z,95.30
2017-12-11T12:03:15.542Z,95.20
2017-12-11T12:05:41.785Z,95.20
2017-12-11T12:08:08.065Z,95.40
2017-12-11T12:10:35.194Z,95.20
2017-12-11T12:13:02.171Z,95.50
2017-12-11T12:15:28.413Z,95.10
2017-12-11T12:17:54.657Z,95.00
2017-12-11T12:20:22.380Z,95.20
2017-12-11T12:22:48.796Z,95.20
2017-12-11T12:25:15.434Z,95.10
2017-12-11T12:27:41.733Z,95.10
2017-12-11T12:30:08.344Z,95.20
2017-12-11T12:32:34.950Z,95.40
2017-12-11T12:35:01.308Z,95.60
2017-12-11T12:40:03.958Z,95.40
2017-12-11T12:42:30.637Z,95.30
2017-12-11T12:44:57.385Z,95.30
2017-12-11T12:47:24.427Z,95.50
2017-12-11T12:49:50.605Z,95.40
2017-12-11T12:52:16.835Z,95.10
2017-12-11T12:54:43.012Z,95.30
2017-12-11T12:57:09.207Z,95.30
2017-12-11T12:59:35.416Z,95.30
2017-12-11T13:02:02.385Z,95.20
2017-12-11T13:04:28.643Z,95.10
2017-12-11T13:06:54.832Z,94.70
2017-12-11T13:09:21.033Z,94.70
2017-12-11T13:11:47.403Z,94.50
2017-12-11T13:14:13.625Z,94.20
2017-12-11T13:16:39.818Z,94.20
2017-12-11T13:19:06.382Z,94.20
2017-12-11T13:21:32.655Z,94.20
2017-12-11T13:23:58.864Z,94.10
2017-12-11T13:26:25.027Z,94.40
2017-12-11T13:28:51.215Z,94.20
2017-12-11T13:31:17.511Z,94.00
2017-12-11T13:33:43.676Z,94.30
2017-12-11T13:36:09.885Z,94.60
2017-12-11T13:38:36.103Z,93.00
2017-12-11T13:41:02.397Z,92.20
2017-12-11T13:43:28.563Z,92.50
2017-12-11T13:45:56.193Z,92.60
2017-12-11T13:48:22.907Z,92.80
2017-12-11T13:50:49.782Z,93.10
2017-12-11T13:53:16.303Z,93.40
2017-12-11T13:55:42.503Z,93.70
2017-12-11T13:58:08.707Z,93.90
2017-12-11T14:00:34.899Z,93.70
2017-12-11T14:03:01.114Z,93.90
2017-12-11T14:05:27.502Z,93.70
2017-12-11T14:07:53.671Z,93.80
2017-12-11T14:10:19.981Z,94.00
2017-12-11T14:12:46.219Z,93.70
2017-12-11T14:15:12.424Z,93.80
2017-12-11T14:17:39.360Z,93.80
2017-12-11T14:20:05.613Z,93.70
2017-12-11T14:22:31.838Z,93.60
2017-12-11T14:24:58.242Z,93.50
2017-12-11T14:27:24.458Z,93.30
2017-12-11T14:29:50.742Z,93.40
2017-12-11T14:32:16.963Z,93.90
2017-12-11T14:34:43.191Z,94.30
2017-12-11T14:37:09.423Z,92.90
2017-12-11T14:39:35.602Z,90.60
2017-12-11T14:42:01.901Z,89.10
2017-12-11T14:44:28.805Z,87.80
2017-12-11T14:46:55.078Z,86.10
2017-12-11T14:49:21.325Z,86.10
2017-12-11T14:51:47.580Z,86.10
2017-12-11T14:54:13.798Z,87.10
2017-12-11T14:56:40.015Z,87.70
2017-12-11T14:59:06.249Z,87.40
2017-12-11T15:01:32.402Z,86.30
2017-12-11T15:03:58.606Z,86.00
2017-12-11T15:06:24.766Z,86.50
2017-12-11T15:08:50.990Z,88.30
2017-12-11T15:11:17.206Z,88.30
2017-12-11T15:13:43.412Z,88.70
2017-12-11T15:16:09.600Z,90.10
2017-12-11T15:18:35.773Z,90.70
2017-12-11T15:21:02.338Z,91.20
2017-12-11T15:23:28.926Z,91.60
2017-12-11T15:25:55.425Z,91.90
2017-12-11T15:28:22.373Z,92.40
2017-12-11T15:30:49.621Z,92.60
2017-12-11T15:33:16.156Z,92.40
2017-12-11T15:35:42.412Z,92.60
2017-12-11T15:38:08.624Z,92.80
2017-12-11T15:40:34.819Z,92.50
2017-12-11T15:43:01.097Z,92.70
2017-12-11T15:45:27.313Z,93.00
2017-12-11T15:47:53.514Z,92.90
2017-12-11T15:50:19.735Z,93.00
2017-12-11T15:52:46.085Z,92.80
2017-12-11T15:55:13.219Z,92.90
2017-12-11T16:07:19.432Z,92.50
2017-12-11T16:09:45.626Z,92.70
2017-12-11T16:12:11.908Z,92.70
2017-12-11T16:14:38.222Z,92.40
2017-12-11T16:17:04.394Z,92.50
2017-12-11T16:19:30.604Z,92.50
2017-12-11T16:21:57.535Z,92.60
2017-12-11T16:24:23.747Z,92.50
2017-12-11T16:26:50.031Z,92.50
2017-12-11T16:29:16.281Z,92.60
2017-12-11T16:31:42.521Z,92.20
2017-12-11T16:34:08.963Z,92.20
2017-12-11T16:36:35.325Z,92.50
2017-12-11T16:39:01.512Z,92.60
2017-12-11T16:41:28.574Z,92.60
2017-12-11T16:43:54.786Z,91.90
2017-12-11T16:46:21.008Z,91.70
2017-12-11T16:48:47.313Z,91.90
2017-12-11T16:51:14.144Z,91.70
2017-12-11T16:53:40.684Z,92.00
2017-12-11T16:56:06.927Z,91.60
2017-12-11T16:58:33.205Z,91.60
2017-12-11T17:00:59.841Z,91.50
2017-12-11T17:03:26.035Z,91.60
2017-12-11T17:05:52.298Z,91.80
2017-12-11T17:08:18.557Z,91.50
2017-12-11T17:10:44.761Z,91.50
2017-12-11T17:13:11.045Z,91.50
2017-12-11T17:15:37.265Z,91.70
2017-12-11T17:18:03.482Z,91.70
2017-12-11T17:20:29.689Z,91.20
2017-12-11T17:22:55.992Z,91.30
2017-12-11T17:25:22.261Z,91.20
2017-12-11T18:55:45.452Z,88.90
2017-12-11T18:58:11.710Z,88.90
2017-12-11T19:00:38.011Z,88.80
2017-12-11T19:03:04.276Z,88.10
2017-12-11T19:05:30.501Z,88.80
2017-12-11T19:07:56.716Z,88.30
2017-12-11T19:10:23.821Z,88.30
2017-12-11T19:12:50.145Z,88.30
2017-12-11T19:15:17.256Z,87.70
2017-12-11T19:17:43.471Z,88.30
2017-12-11T19:20:09.762Z,87.70
2017-12-11T19:22:36.831Z,88.10
2017-12-11T19:25:03.073Z,87.60
2017-12-11T19:27:29.788Z,87.60
2017-12-11T19:29:56.186Z,88.10
2017-12-11T19:32:24.881Z,88.80
2017-12-11T19:34:53.604Z,88.30
2017-12-11T19:37:20.164Z,88.10
2017-12-11T19:39:46.736Z,88.10
2017-12-11T19:42:14.590Z,87.50
2017-12-11T19:44:42.229Z,86.90
2017-12-11T19:47:09.460Z,87.30
2017-12-11T19:49:38.654Z,87.00
2017-12-11T19:52:05.237Z,86.70
2017-12-11T19:54:33.571Z,87.00
2017-12-11T19:57:01.323Z,86.90
2017-12-11T19:59:28.716Z,86.80
2017-12-11T20:01:55.632Z,86.80
2017-12-11T20:04:22.060Z,86.70
2017-12-11T20:06:48.301Z,86.60
2017-12-11T20:09:14.799Z,86.40
2017-12-11T20:11:41.768Z,86.30
2017-12-11T20:14:08.287Z,85.90
2017-12-11T20:16:36.487Z,85.40
2017-12-11T20:19:06.950Z,85.90
2017-12-11T20:21:33.987Z,85.30
2017-12-11T20:24:01.920Z,85.90
2017-12-11T20:26:28.764Z,85.80
2017-12-11T20:28:55.651Z,85.60
2017-12-11T20:31:22.160Z,85.60
2017-12-11T20:33:48.799Z,85.20
2017-12-11T20:36:15.390Z,85.60
2017-12-11T20:38:42.819Z,84.10
2017-12-11T20:41:09.187Z,84.70
2017-12-11T20:43:36.336Z,84.00
2017-12-11T20:46:04.241Z,84.00
2017-12-11T20:48:30.714Z,84.10
2017-12-11T20:50:56.942Z,84.80
2017-12-11T20:53:23.199Z,83.90
2017-12-11T20:55:49.524Z,84.20
2017-12-11T20:58:15.655Z,84.90
2017-12-11T21:00:41.996Z,85.40
2017-12-11T21:03:08.240Z,85.90
2017-12-11T21:05:34.571Z,87.10
2017-12-11T21:17:40.944Z,87.60
2017-12-11T21:20:07.642Z,87.50
2017-12-11T21:22:34.626Z,87.00
2017-12-11T21:25:00.896Z,83.90
2017-12-11T21:27:30.452Z,83.90
2017-12-11T21:29:58.070Z,81.80
2017-12-11T21:32:24.431Z,81.40
2017-12-11T21:34:50.670Z,81.60
2017-12-11T21:37:18.419Z,81.80
2017-12-11T21:39:45.754Z,81.80
2017-12-11T21:42:12.725Z,82.00
2017-12-11T21:44:39.554Z,81.50
2017-12-11T21:47:07.213Z,82.00
2017-12-11T21:49:33.406Z,81.80
2017-12-11T21:51:59.929Z,81.60
2017-12-11T21:54:26.173Z,82.00
2017-12-11T21:56:52.482Z,82.00
2017-12-11T21:59:18.735Z,82.00
2017-12-11T22:01:44.994Z,81.70
2017-12-11T22:04:12.582Z,81.40
2017-12-11T22:06:39.291Z,80.90
2017-12-11T22:09:05.556Z,80.80
2017-12-11T22:11:31.756Z,81.10
2017-12-11T22:13:58.813Z,81.60
2017-12-11T22:16:25.924Z,80.90
2017-12-11T22:18:52.215Z,80.40
2017-12-11T22:21:18.863Z,80.40
2017-12-11T22:23:45.292Z,80.30
2017-12-11T22:26:16.587Z,79.80
2017-12-11T22:28:43.524Z,79.70
2017-12-11T22:31:09.742Z,79.40
2017-12-11T22:33:36.396Z,79.00
2017-12-11T22:36:04.367Z,78.00
2017-12-11T22:38:31.154Z,77.70
2017-12-11T22:40:58.403Z,77.40
2017-12-11T22:43:24.613Z,78.00
2017-12-11T22:45:52.009Z,77.70
2017-12-11T22:48:18.232Z,77.00
2017-12-11T22:50:44.835Z,77.50
2017-12-11T22:53:12.034Z,77.40
2017-12-11T22:55:38.231Z,78.00
2017-12-11T22:58:04.668Z,76.10
2017-12-11T23:00:30.933Z,76.80
2017-12-11T23:02:57.175Z,74.00
2017-12-11T23:05:24.329Z,74.00
2017-12-11T23:07:51.114Z,74.00
2017-12-11T23:10:17.418Z,73.50
2017-12-11T23:12:43.674Z,73.50
2017-12-11T23:15:10.728Z,73.60
2017-12-11T23:17:36.968Z,73.70
2017-12-11T23:20:04.043Z,73.00
2017-12-11T23:22:32.241Z,73.80
2017-12-11T23:24:58.644Z,74.10
2017-12-11T23:27:25.602Z,73.80
2017-12-11T23:29:51.792Z,74.10
2017-12-11T23:32:19.090Z,73.60
2017-12-11T23:34:47.372Z,74.10
2017-12-11T23:37:13.755Z,73.40
2017-12-11T23:39:41.995Z,73.40
2017-12-11T23:42:08.254Z,73.90
2017-12-11T23:44:34.439Z,74.70
2017-12-11T23:47:02.694Z,74.00
2017-12-11T23:49:29.783Z,74.30
2017-12-11T23:51:56.022Z,73.30
2017-12-11T23:54:33.484Z,74.00
2017-12-11T23:57:00.427Z,74.50
2017-12-11T23:59:26.622Z,73.90
